createdAt,value
2019-04-03T00:02:27.636Z,2.20
2019-04-03T00:05:00.304Z,2.05
2019-04-03T00:07:35.165Z,2.30
2019-04-03T00:10:09.543Z,2.40
2019-04-03T00:12:42.041Z,2.45
2019-04-03T00:15:15.301Z,2.27
2019-04-03T00:17:47.751Z,2.15
2019-04-03T00:20:20.371Z,2.20
2019-04-03T00:22:52.757Z,2.20
2019-04-03T00:25:25.323Z,2.52
2019-04-03T00:27:57.751Z,2.45
2019-04-03T00:30:31.728Z,2.02
2019-04-03T00:33:04.115Z,2.12
2019-04-03T00:35:36.615Z,2.10
2019-04-03T00:38:09.650Z,2.08
2019-04-03T00:40:42.256Z,2.22
2019-04-03T00:43:15.531Z,1.72
2019-04-03T00:45:49.325Z,2.00
2019-04-03T00:48:21.627Z,1.87
2019-04-03T00:50:56.286Z,2.02
2019-04-03T00:53:28.555Z,1.72
2019-04-03T00:56:00.842Z,1.80
2019-04-03T00:58:43.289Z,2.08
2019-04-03T01:01:16.196Z,1.55
2019-04-03T01:03:50.306Z,1.90
2019-04-03T01:06:22.249Z,1.98
2019-04-03T01:08:54.523Z,2.20
2019-04-03T01:11:30.144Z,1.65
2019-04-03T01:14:02.304Z,2.05
2019-04-03T01:16:34.663Z,2.05
2019-04-03T01:19:07.297Z,1.98
2019-04-03T01:21:39.873Z,1.88
2019-04-03T01:24:12.397Z,1.40
2019-04-03T01:29:16.333Z,1.97
2019-04-03T01:34:20.420Z,1.95
2019-04-03T01:36:52.793Z,2.10
2019-04-03T01:39:25.293Z,1.60
2019-04-03T01:44:29.422Z,1.50
2019-04-03T01:47:01.780Z,1.95
2019-04-03T01:49:34.374Z,1.87
2019-04-03T01:52:07.104Z,2.10
2019-04-03T01:54:40.468Z,1.96
2019-04-03T01:57:12.905Z,1.80
2019-04-03T01:59:46.718Z,2.00
2019-04-03T02:02:20.641Z,2.47
2019-04-03T02:04:54.039Z,1.85
2019-04-03T02:07:26.483Z,2.05
2019-04-03T02:09:58.762Z,1.65
2019-04-03T02:12:31.292Z,1.75
2019-04-03T02:15:03.697Z,2.22
2019-04-03T02:17:36.455Z,2.37
2019-04-03T02:20:11.400Z,2.08
2019-04-03T02:22:43.888Z,1.90
2019-04-03T02:25:16.372Z,2.15
2019-04-03T02:27:48.536Z,2.05
2019-04-03T02:30:20.724Z,2.60
2019-04-03T02:32:56.625Z,2.20
2019-04-03T02:35:27.512Z,2.42
2019-04-03T02:37:59.776Z,2.42
2019-04-03T02:40:33.125Z,2.35
2019-04-03T02:43:05.845Z,2.20
2019-04-03T02:45:38.466Z,2.25
2019-04-03T02:48:10.901Z,2.37
2019-04-03T02:50:46.546Z,2.60
2019-04-03T02:53:18.046Z,2.67
2019-04-03T02:55:50.527Z,2.50
2019-04-03T02:58:23.446Z,2.87
2019-04-03T03:00:56.008Z,3.42
2019-04-03T03:03:29.034Z,2.80
2019-04-03T03:06:01.824Z,2.98
2019-04-03T03:08:35.319Z,3.10
2019-04-03T03:11:10.004Z,2.90
2019-04-03T03:13:42.842Z,2.92
2019-04-03T03:18:49.287Z,2.90
2019-04-03T03:21:23.315Z,2.90
2019-04-03T03:23:57.256Z,3.60
2019-04-03T03:26:31.300Z,3.20
2019-04-03T03:29:16.991Z,3.42
2019-04-03T03:32:03.038Z,3.24
2019-04-03T03:34:16.842Z,3.25
2019-04-03T03:36:50.848Z,3.50
2019-04-03T03:41:58.607Z,4.00
2019-04-03T03:44:31.880Z,3.70
2019-04-03T03:47:27.666Z,4.50
2019-04-03T03:52:38.224Z,4.03
2019-04-03T03:55:13.850Z,4.35
2019-04-03T04:09:38.040Z,3.15
2019-04-03T04:12:11.345Z,3.44
2019-04-03T04:14:46.626Z,3.40
2019-04-03T04:17:19.668Z,3.20
2019-04-03T04:19:52.679Z,3.45
2019-04-03T04:22:27.848Z,4.30
2019-04-03T04:25:04.054Z,4.30
2019-04-03T04:27:38.629Z,4.53
2019-04-03T04:30:12.919Z,4.70
2019-04-03T04:32:46.512Z,5.00
2019-04-03T04:35:21.456Z,4.75
2019-04-03T04:37:55.273Z,5.13
2019-04-03T04:40:29.007Z,4.78
2019-04-03T04:43:03.622Z,4.55
2019-04-03T04:45:40.687Z,4.50
2019-04-03T04:48:15.833Z,4.87
2019-04-03T04:50:47.421Z,5.08
2019-04-03T04:53:20.082Z,4.90
2019-04-03T04:55:52.760Z,5.05
2019-04-03T04:58:25.331Z,5.27
2019-04-03T05:00:59.512Z,4.47
2019-04-03T05:03:31.911Z,4.40
2019-04-03T05:06:04.325Z,4.80
2019-04-03T05:08:36.714Z,4.83
2019-04-03T05:11:09.322Z,4.95
2019-04-03T05:13:41.856Z,5.10
2019-04-03T05:16:14.609Z,5.00
2019-04-03T05:18:47.314Z,4.58
2019-04-03T05:21:21.743Z,4.42
2019-04-03T05:23:55.945Z,4.47
2019-04-03T05:26:28.760Z,5.75
2019-04-03T05:29:01.314Z,4.28
2019-04-03T05:31:34.057Z,4.47
2019-04-03T05:36:51.994Z,5.45
2019-04-03T05:39:24.738Z,4.85
2019-04-03T05:41:59.524Z,5.35
2019-04-03T05:44:33.465Z,5.03
2019-04-03T05:47:08.135Z,5.83
2019-04-03T05:49:42.281Z,5.78
2019-04-03T05:52:14.897Z,6.20
2019-04-03T05:54:49.837Z,6.57
2019-04-03T05:57:22.394Z,6.30
2019-04-03T06:00:00.650Z,6.40
2019-04-03T06:02:30.542Z,6.17
2019-04-03T06:05:05.970Z,6.35
2019-04-03T06:07:37.562Z,6.20
2019-04-03T06:10:11.733Z,5.85
2019-04-03T06:12:46.333Z,6.25
2019-04-03T06:15:21.813Z,5.92
2019-04-03T06:17:55.090Z,5.40
2019-04-03T06:20:28.167Z,5.80
2019-04-03T06:23:02.564Z,5.62
2019-04-03T06:25:35.292Z,6.03
2019-04-03T06:28:07.627Z,6.12
2019-04-03T06:30:41.983Z,6.92
2019-04-03T06:33:14.983Z,5.78
2019-04-03T06:35:47.992Z,6.65
2019-04-03T06:38:20.365Z,5.70
2019-04-03T06:40:52.392Z,6.00
2019-04-03T06:43:24.312Z,6.15
2019-04-03T06:45:59.593Z,5.87
2019-04-03T06:48:32.309Z,6.75
2019-04-03T06:51:04.280Z,6.14
2019-04-03T06:53:36.245Z,4.70
2019-04-03T06:56:10.448Z,5.05
2019-04-03T06:58:44.409Z,5.20
2019-04-03T07:03:55.041Z,4.92
2019-04-03T07:06:27.698Z,5.25
2019-04-03T07:09:00.499Z,5.20
2019-04-03T07:11:34.625Z,5.30
2019-04-03T07:14:10.721Z,4.75
2019-04-03T07:16:46.558Z,5.35
2019-04-03T07:19:19.319Z,4.97
2019-04-03T07:21:52.999Z,4.80
2019-04-03T07:28:09.065Z,4.92
2019-04-03T07:30:44.844Z,5.44
2019-04-03T07:33:18.600Z,6.00
2019-04-03T07:35:51.452Z,6.90
2019-04-03T07:38:23.835Z,6.03
2019-04-03T07:40:56.367Z,6.17
2019-04-03T07:43:28.719Z,4.40
2019-04-03T07:46:01.685Z,4.40
2019-04-03T07:48:37.154Z,4.15
2019-04-03T07:51:12.498Z,4.65
2019-04-03T07:53:43.596Z,4.30
2019-04-03T07:56:16.593Z,4.37
2019-04-03T08:01:23.443Z,4.53
2019-04-03T08:06:27.911Z,4.33
2019-04-03T08:09:08.433Z,5.10
2019-04-03T08:14:09.975Z,4.35
2019-04-03T08:19:15.671Z,4.78
2019-04-03T08:21:50.604Z,4.03
2019-04-03T08:24:23.543Z,4.22
2019-04-03T08:26:56.266Z,4.10
2019-04-03T08:29:28.598Z,3.55
2019-04-03T08:32:02.740Z,3.50
2019-04-03T08:34:35.317Z,2.90
2019-04-03T08:37:10.379Z,2.65
2019-04-03T08:39:43.988Z,2.92
2019-04-03T08:42:16.641Z,2.90
2019-04-03T08:44:49.320Z,3.10
2019-04-03T08:47:21.751Z,3.08
2019-04-03T08:49:56.400Z,3.30
2019-04-03T08:52:28.448Z,3.40
2019-04-03T08:55:00.971Z,2.87
2019-04-03T08:57:33.363Z,2.40
2019-04-03T09:00:09.476Z,3.17
2019-04-03T09:02:44.104Z,4.58
2019-04-03T09:05:19.704Z,2.27
2019-04-03T09:07:55.358Z,1.97
2019-04-03T09:10:27.512Z,2.20
2019-04-03T09:12:59.874Z,2.52
2019-04-03T09:15:32.454Z,2.35
2019-04-03T09:18:06.426Z,2.30
2019-04-03T09:20:43.466Z,2.40
2019-04-03T09:23:17.318Z,2.30
2019-04-03T09:25:49.869Z,2.30
2019-04-03T09:28:22.811Z,2.20
2019-04-03T09:30:55.503Z,2.33
2019-04-03T09:33:29.830Z,1.80
2019-04-03T09:36:04.377Z,2.10
2019-04-03T09:38:36.507Z,1.90
2019-04-03T09:41:09.357Z,1.60
2019-04-03T09:43:43.505Z,2.17
2019-04-03T09:46:15.775Z,2.00
2019-04-03T09:48:48.299Z,3.40
2019-04-03T09:51:22.780Z,1.90
2019-04-03T09:53:57.071Z,2.22
2019-04-03T09:56:28.924Z,2.08
2019-04-03T09:59:06.732Z,2.00
2019-04-03T10:01:41.606Z,2.05
2019-04-03T10:04:14.376Z,2.12
2019-04-03T10:06:47.464Z,2.27
2019-04-03T10:09:20.071Z,2.02
2019-04-03T10:11:53.031Z,2.33
2019-04-03T10:16:59.000Z,2.00
2019-04-03T10:19:33.442Z,2.25
2019-04-03T10:24:39.290Z,2.60
2019-04-03T10:27:12.666Z,2.25
2019-04-03T10:29:45.494Z,2.20
2019-04-03T10:32:18.290Z,2.10
2019-04-03T10:34:50.370Z,2.37
2019-04-03T10:37:22.275Z,2.20
2019-04-03T10:44:58.331Z,1.70
2019-04-03T10:47:41.343Z,2.08
2019-04-03T10:50:09.341Z,1.98
2019-04-03T10:52:44.048Z,1.80
2019-04-03T10:55:17.079Z,1.45
2019-04-03T10:57:50.400Z,1.90
2019-04-03T11:00:24.880Z,1.50
2019-04-03T11:02:57.476Z,1.90
2019-04-03T11:05:30.356Z,1.90
2019-04-03T11:08:04.291Z,2.12
2019-04-03T11:10:38.618Z,1.98
2019-04-03T11:13:11.315Z,1.35
2019-04-03T11:15:46.003Z,1.62
2019-04-03T11:18:18.871Z,1.65
2019-04-03T11:20:52.466Z,1.70
2019-04-03T11:23:38.651Z,2.00
2019-04-03T11:26:00.761Z,1.80
2019-04-03T11:28:36.987Z,1.82
2019-04-03T11:31:07.616Z,1.60
2019-04-03T11:33:40.452Z,1.70
2019-04-03T11:38:53.578Z,1.92
2019-04-03T11:41:26.012Z,1.92
2019-04-03T11:43:58.547Z,2.80
2019-04-03T11:47:20.020Z,2.35
2019-04-03T11:49:53.235Z,2.27
2019-04-03T11:52:25.737Z,3.25
2019-04-03T11:54:58.316Z,2.47
2019-04-03T11:57:30.772Z,2.30
2019-04-03T12:00:05.326Z,2.10
2019-04-03T12:02:39.102Z,1.90
2019-04-03T12:05:15.371Z,2.40
2019-04-03T12:13:46.749Z,2.12
2019-04-03T12:18:53.842Z,2.40
2019-04-03T12:21:32.194Z,2.33
2019-04-03T12:24:05.293Z,2.25
2019-04-03T12:26:42.985Z,2.00
2019-04-03T12:31:48.298Z,2.25
2019-04-03T12:34:24.049Z,2.47
2019-04-03T12:39:29.753Z,2.35
2019-04-03T12:42:02.561Z,2.17
2019-04-03T12:44:36.830Z,2.60
2019-04-03T12:47:12.373Z,2.67
2019-04-03T12:49:45.304Z,2.62
2019-04-03T12:52:19.379Z,2.40
2019-04-03T12:54:53.756Z,2.52
2019-04-03T12:57:29.141Z,3.33
2019-04-03T13:00:04.697Z,3.12
2019-04-03T13:02:37.418Z,2.80
2019-04-03T13:05:13.478Z,2.80
2019-04-03T13:07:47.472Z,3.17
2019-04-03T13:10:23.547Z,3.53
2019-04-03T13:12:57.056Z,2.95
2019-04-03T13:15:29.661Z,2.58
2019-04-03T13:18:05.527Z,3.20
2019-04-03T13:20:38.690Z,2.98
2019-04-03T13:23:13.314Z,2.87
2019-04-03T13:25:54.594Z,2.70
2019-04-03T13:28:29.451Z,2.52
2019-04-03T13:31:06.620Z,2.70
2019-04-03T13:33:39.796Z,2.27
2019-04-03T13:36:13.754Z,2.65
2019-04-03T14:10:53.332Z,2.95
2019-04-03T14:13:26.269Z,2.87
2019-04-03T14:15:59.085Z,2.35
2019-04-03T14:18:31.558Z,2.42
2019-04-03T14:21:04.105Z,2.42
2019-04-03T14:23:39.768Z,2.95
2019-04-03T14:26:13.828Z,2.22
2019-04-03T14:28:46.356Z,2.40
2019-04-03T14:31:19.296Z,3.30
2019-04-03T14:40:57.349Z,2.17
2019-04-03T14:44:09.929Z,2.15
2019-04-03T14:46:43.526Z,1.77
2019-04-03T14:49:45.298Z,2.00
2019-04-03T14:56:09.952Z,1.60
2019-04-03T15:08:49.160Z,2.08
2019-04-03T15:11:22.047Z,2.35
2019-04-03T15:13:54.500Z,2.20
2019-04-03T15:16:27.629Z,2.00
2019-04-03T15:19:02.604Z,3.00
2019-04-03T15:21:35.514Z,2.22
2019-04-03T15:24:08.943Z,1.87
2019-04-03T15:26:45.286Z,2.00
2019-04-03T15:29:18.291Z,2.70
2019-04-03T15:31:51.535Z,1.45
2019-04-03T15:34:27.740Z,1.33
2019-04-03T15:37:00.704Z,1.37
2019-04-03T15:39:33.512Z,1.25
2019-04-03T15:42:06.686Z,1.65
2019-04-03T15:44:42.618Z,1.50
2019-04-03T15:47:28.258Z,1.42
2019-04-03T15:49:52.701Z,2.40
2019-04-03T15:52:25.718Z,2.12
2019-04-03T15:54:58.836Z,2.08
2019-04-03T15:57:32.058Z,1.87
2019-04-03T16:00:12.893Z,1.50
2019-04-03T16:02:46.681Z,1.37
2019-04-03T16:05:20.141Z,1.90
2019-04-03T16:07:52.831Z,1.56
2019-04-03T16:10:25.827Z,1.57
2019-04-03T16:13:09.055Z,2.20
2019-04-03T16:15:42.051Z,1.70
2019-04-03T16:18:14.714Z,1.40
2019-04-03T16:20:50.092Z,1.92
2019-04-03T16:23:23.649Z,1.70
2019-04-03T16:25:56.511Z,1.65
2019-04-03T16:28:29.679Z,1.52
2019-04-03T16:31:03.895Z,1.40
2019-04-03T16:33:37.017Z,1.20
2019-04-03T16:36:11.310Z,1.37
2019-04-03T16:38:46.928Z,1.40
2019-04-03T16:41:19.871Z,1.40
2019-04-03T16:43:52.894Z,1.37
2019-04-03T16:46:27.670Z,2.70
2019-04-03T16:49:00.328Z,1.80
2019-04-03T16:51:33.785Z,1.77
2019-04-03T16:54:10.282Z,1.77
2019-04-03T16:56:41.628Z,1.50
2019-04-03T16:59:15.497Z,1.67
2019-04-03T17:01:49.432Z,2.17
2019-04-03T17:04:27.195Z,1.80
2019-04-03T17:06:57.609Z,1.85
2019-04-03T17:09:32.618Z,3.17
2019-04-03T17:12:04.593Z,2.58
2019-04-03T17:14:37.730Z,2.77
2019-04-03T17:17:13.646Z,3.27
2019-04-03T17:19:44.812Z,2.15
2019-04-03T17:22:19.037Z,2.10
2019-04-03T17:24:54.023Z,2.20
2019-04-03T17:27:25.681Z,1.85
2019-04-03T17:29:58.645Z,1.72
2019-04-03T17:32:31.732Z,1.98
2019-04-03T17:35:06.767Z,1.87
2019-04-03T17:37:39.361Z,2.22
2019-04-03T17:42:46.092Z,1.32
2019-04-03T17:47:53.912Z,1.60
2019-04-03T17:50:29.405Z,1.72
2019-04-03T17:53:01.766Z,1.67
2019-04-03T17:55:34.568Z,1.85
2019-04-03T17:58:07.606Z,2.20
2019-04-03T18:00:40.534Z,2.20
2019-04-03T18:03:13.446Z,1.98
2019-04-03T18:05:45.830Z,3.22
2019-04-03T18:08:19.629Z,3.10
2019-04-03T18:10:52.306Z,2.47
2019-04-03T18:13:25.044Z,2.92
2019-04-03T18:15:58.908Z,2.87
2019-04-03T18:18:33.354Z,3.52
2019-04-03T18:21:06.364Z,3.58
2019-04-03T18:23:40.348Z,3.67
2019-04-03T18:26:13.082Z,4.80
2019-04-03T18:28:45.716Z,3.83
2019-04-03T18:31:21.310Z,3.50
2019-04-03T18:33:56.418Z,3.60
2019-04-03T18:36:31.200Z,3.85
2019-04-03T18:39:05.048Z,3.40
2019-04-03T18:41:37.877Z,3.58
2019-04-03T18:44:21.535Z,4.30
2019-04-03T18:46:44.857Z,3.95
2019-04-03T18:49:17.571Z,3.98
2019-04-03T18:51:50.298Z,3.65
2019-04-03T18:54:23.286Z,4.08
2019-04-03T18:56:55.799Z,3.53
2019-04-03T18:59:28.366Z,4.07
2019-04-03T19:02:01.977Z,4.47
2019-04-03T19:04:40.829Z,4.60
2019-04-03T19:07:15.271Z,4.28
2019-04-03T19:09:47.818Z,4.50
2019-04-03T19:12:20.360Z,5.25
2019-04-03T19:14:53.019Z,4.53
2019-04-03T19:17:25.528Z,3.87
2019-04-03T19:20:09.687Z,3.87
2019-04-03T19:22:32.796Z,4.60
2019-04-03T19:25:07.501Z,3.90
2019-04-03T19:27:40.306Z,4.33
2019-04-03T19:30:13.413Z,3.18
2019-04-03T19:32:46.080Z,3.08
2019-04-03T19:35:20.313Z,3.82
2019-04-03T19:37:52.758Z,3.92
2019-04-03T19:40:25.397Z,4.30
2019-04-03T19:42:57.779Z,3.42
2019-04-03T19:45:33.272Z,3.43
2019-04-03T19:48:06.049Z,3.40
2019-04-03T19:50:38.490Z,3.05
2019-04-03T19:53:13.195Z,2.75
2019-04-03T19:55:45.387Z,3.30
2019-04-03T19:58:18.347Z,3.08
2019-04-03T20:00:51.635Z,3.17
2019-04-03T20:03:24.645Z,3.40
2019-04-03T20:05:58.824Z,3.27
2019-04-03T20:08:31.683Z,2.33
2019-04-03T20:11:05.089Z,2.25
2019-04-03T20:13:39.873Z,1.92
2019-04-03T20:16:12.998Z,3.60
2019-04-03T20:18:45.806Z,1.95
2019-04-03T20:21:18.322Z,2.40
2019-04-03T20:23:50.881Z,3.15
2019-04-03T20:26:24.033Z,2.62
2019-04-03T20:28:58.562Z,2.00
2019-04-03T20:31:36.309Z,1.07
2019-04-03T20:34:08.867Z,1.30
2019-04-03T20:36:41.471Z,1.00
2019-04-03T20:39:17.470Z,1.05
2019-04-03T20:41:50.324Z,1.30
2019-04-03T20:44:22.740Z,2.77
2019-04-03T20:46:56.563Z,1.58
2019-04-03T20:49:28.878Z,1.10
2019-04-03T20:52:01.329Z,0.90
2019-04-03T20:54:33.745Z,1.33
2019-04-03T20:57:13.822Z,1.22
2019-04-03T20:59:58.655Z,1.02
2019-04-03T21:02:21.371Z,0.80
2019-04-03T21:04:53.911Z,0.90
2019-04-03T21:07:26.324Z,0.70
2019-04-03T21:10:00.519Z,0.90
2019-04-03T21:12:35.832Z,1.00
2019-04-03T21:15:14.178Z,0.77
2019-04-03T21:17:51.377Z,0.72
2019-04-03T21:20:24.766Z,0.75
2019-04-03T21:22:58.745Z,0.97
2019-04-03T21:25:31.307Z,0.70
2019-04-03T21:28:03.870Z,1.00
2019-04-03T21:30:36.431Z,0.90
2019-04-03T21:33:08.825Z,0.80
2019-04-03T21:35:42.391Z,0.82
2019-04-03T21:38:20.015Z,0.78
2019-04-03T21:40:55.765Z,0.70
2019-04-03T21:43:29.802Z,0.90
2019-04-03T21:46:02.305Z,0.90
2019-04-03T21:48:34.866Z,0.85
2019-04-03T21:51:07.748Z,0.90
2019-04-03T21:53:44.589Z,1.30
2019-04-03T21:56:31.007Z,1.80
2019-04-03T21:59:05.823Z,1.75
2019-04-03T22:01:45.420Z,1.65
2019-04-03T22:04:22.845Z,1.35
2019-04-03T22:07:01.866Z,1.60
2019-04-03T22:09:34.749Z,1.40
2019-04-03T22:12:07.668Z,1.30
2019-04-03T22:14:43.482Z,1.25
2019-04-03T22:17:23.751Z,1.50
2019-04-03T22:19:59.386Z,1.56
2019-04-03T22:22:33.836Z,1.37
2019-04-03T22:25:09.021Z,1.40
2019-04-03T22:27:42.853Z,1.40
2019-04-03T22:30:16.173Z,1.80
2019-04-03T22:32:49.753Z,1.70
2019-04-03T22:35:39.404Z,2.40
2019-04-03T22:38:14.805Z,2.40
2019-04-03T22:40:53.557Z,2.22
2019-04-03T22:43:21.789Z,1.40
2019-04-03T22:45:54.390Z,1.12
2019-04-03T22:48:28.425Z,1.47
2019-04-03T22:51:00.873Z,1.07
2019-04-03T22:53:33.398Z,0.93
2019-04-03T22:56:05.876Z,0.90
2019-04-03T22:58:41.031Z,0.77
2019-04-03T23:01:13.700Z,0.75
2019-04-03T23:03:49.552Z,0.80
2019-04-03T23:06:22.294Z,1.27
2019-04-03T23:08:59.354Z,1.90
2019-04-03T23:11:32.023Z,3.15
2019-04-03T23:14:08.002Z,1.90
2019-04-03T23:16:42.683Z,1.85
2019-04-03T23:19:21.684Z,2.22
2019-04-03T23:21:55.571Z,1.53
2019-04-03T23:24:32.018Z,1.67
2019-04-03T23:27:04.431Z,1.87
2019-04-03T23:29:37.866Z,1.47
2019-04-03T23:32:15.278Z,1.10
2019-04-03T23:34:53.618Z,1.00
2019-04-03T23:37:26.292Z,1.16
2019-04-03T23:40:00.751Z,1.17
2019-04-03T23:42:32.256Z,1.10
2019-04-03T23:45:07.041Z,0.88
2019-04-03T23:47:45.139Z,0.93
2019-04-03T23:50:13.691Z,0.90
2019-04-03T23:52:46.298Z,1.20
2019-04-03T23:55:21.009Z,1.10
2019-04-03T23:57:55.306Z,1.07
